American Integrity — WDD2875 — position and weather

sailwx.info

Track history (hours):
 
Tides and Currents Weather Stations Pressure Air Temp Water Temp Dewpoint Dewpoint Depression Visibility Wind Speed Wind Dir Waves Ship Positions

American Integrity

Owner: American Steamship Company, Williamsville, NY. More information available from US FCC via Universal Licensing System and Coast Guard Vessel Documentation Center.

Last reported at 2016-Aug-31 22:33 UTC. Time now 2016-Aug-31 23:29 UTC.
Position N 46°52' W 091°50'.

; draft 8 m.

Type: Cargo ship. MMSI: 367120990.

Date/timePositionNaut miles runAvg speedWind from/ knotsBaromVisibWave heightAir tempDewpointWater temp
2016-Aug-31 22:33N 46°52' W 091°50'1222.3
2016-Aug-31 22:00N 47°00' W 091°36'2 3.9 150 / 71019.610.8 0.521.1
2016-Aug-31 21:33N 46°59' W 091°34'5211.3
2016-Aug-31 17:00N 47°18' W 090°24'3712.4 340 / 9 0.521.6
2016-Aug-31 14:00N 47°24' W 089°30'4912.3 340 / 161019.210.8 0.518.8
2016-Aug-31 10:00N 47°30' W 088°18'5410.8 340 / 131018.210.8 1.019.4
2016-Aug-31 05:00N 47°18' W 087°00'5614.0 310 / 121017.210.8 1.017.2
2016-Aug-31 01:00N 47°00' W 085°42'2713.7 320 / 201015.910.8 1.017.7
2016-Aug-30 23:00N 46°48' W 085°06'52 5.2 300 / 141015.910.8 1.017.7
2016-Aug-30 13:07N 46°16' W 084°07'6 7.9
2016-Aug-30 12:22N 46°10' W 084°05'1910.2
2016-Aug-30 10:28N 45°54' W 083°51'1112.1
2016-Aug-30 09:32N 45°44' W 083°42'1211.9
2016-Aug-30 08:32N 45°35' W 083°32'1212.0
2016-Aug-30 07:33N 45°27' W 083°20'2612.6
2016-Aug-30 05:31N 45°11' W 082°51'3710.5
2016-Aug-30 02:00N 44°42' W 082°18'   160 / 81021.310.8 23.8
2016-Aug-27 17:27N 46°02' W 083°55'16 8.5
2016-Aug-27 15:33N 46°13' W 084°10'105 7.8
2016-Aug-27 02:00N 47°12' W 086°18'20411.1 240 / 71019.610.8 15.5
2016-Aug-26 07:33N 47°03' W 091°18'1111.2
2016-Aug-26 06:33N 46°58' W 091°33'2311.4
2016-Aug-26 04:33N 46°48' W 092°02'4 3.9
2016-Aug-26 03:33N 46°45' W 092°06'1 1.3
2016-Aug-26 02:33N 46°45' W 092°08'0 0.0
2016-Aug-26 01:33N 46°45' W 092°08'0 0.0
2016-Aug-26 00:33N 46°45' W 092°08'0 0.0
2016-Aug-25 23:33N 46°45' W 092°08'0 0.0
2016-Aug-25 22:33N 46°45' W 092°08'0 0.0
2016-Aug-25 21:33N 46°45' W 092°08'0 0.0
2016-Aug-25 20:33N 46°45' W 092°08'0 0.0
2016-Aug-25 19:33N 46°45' W 092°08'0 0.0
2016-Aug-25 18:33N 46°45' W 092°08'0 0.0
2016-Aug-25 17:33N 46°45' W 092°08'0 0.0
2016-Aug-25 16:33N 46°45' W 092°08'0 0.0
2016-Aug-25 15:33N 46°45' W 092°08'0 0.0
2016-Aug-25 14:33N 46°45' W 092°08'0 0.0
2016-Aug-25 13:33N 46°45' W 092°08'0 0.0
2016-Aug-25 12:33N 46°45' W 092°08'0 0.0
2016-Aug-25 11:33N 46°45' W 092°08'0 0.0
2016-Aug-25 10:33N 46°45' W 092°08'0 0.0
2016-Aug-25 09:33N 46°45' W 092°08'0 0.0
2016-Aug-25 08:33N 46°45' W 092°08'0 0.0
2016-Aug-25 07:33N 46°45' W 092°08'0 0.0
2016-Aug-25 06:33N 46°45' W 092°08'0 0.0
2016-Aug-25 04:33N 46°45' W 092°08'0 0.0
2016-Aug-25 03:33N 46°45' W 092°08'0 0.0
2016-Aug-25 02:34N 46°45' W 092°08'0 0.0
2016-Aug-25 01:33N 46°45' W 092°08'0 0.0
2016-Aug-25 00:33N 46°45' W 092°08'0 0.0
2016-Aug-24 23:33N 46°45' W 092°08'0 0.0
2016-Aug-24 22:33N 46°45' W 092°08'0 0.0
2016-Aug-24 21:33N 46°45' W 092°08'0 0.0
2016-Aug-24 20:33N 46°45' W 092°08'0 0.0
2016-Aug-24 19:33N 46°45' W 092°08'0 0.0
2016-Aug-24 18:33N 46°45' W 092°08'0 0.0
2016-Aug-24 17:33N 46°45' W 092°08'0 0.0
2016-Aug-24 16:33N 46°45' W 092°08'0 0.0
2016-Aug-24 15:33N 46°45' W 092°08'0 0.0
2016-Aug-24 14:32N 46°45' W 092°08'0 0.0
2016-Aug-24 13:33N 46°45' W 092°08'0 0.0
2016-Aug-24 12:33N 46°45' W 092°08'0 0.0
2016-Aug-24 11:33N 46°45' W 092°08'0 0.0
2016-Aug-24 10:33N 46°45' W 092°08'0 0.0
2016-Aug-24 09:33N 46°45' W 092°08'0 0.3
2016-Aug-24 08:33N 46°45' W 092°08'2 1.6
2016-Aug-24 07:33N 46°45' W 092°06'0 0.2
2016-Aug-24 06:33N 46°46' W 092°06'0 0.0
2016-Aug-24 04:33N 46°46' W 092°06'0 0.0
2016-Aug-24 03:33N 46°46' W 092°06'0 0.0
2016-Aug-24 02:33N 46°46' W 092°06'0 0.0
2016-Aug-24 01:33N 46°46' W 092°06'0 0.0
2016-Aug-24 00:33N 46°46' W 092°06'0 0.0
2016-Aug-23 23:33N 46°46' W 092°06'0 0.0
2016-Aug-23 22:33N 46°46' W 092°06'0 0.0
2016-Aug-23 21:33N 46°46' W 092°06'0 0.0
2016-Aug-23 20:33N 46°46' W 092°06'4 4.0
2016-Aug-23 19:33N 46°48' W 092°01'1010.3
2016-Aug-23 18:33N 46°53' W 091°48'1111.0
2016-Aug-23 17:33N 46°59' W 091°34'30 8.6
2016-Aug-23 14:00N 47°12' W 090°54'   13.5
Track history (hours):
 
Tides and Currents Weather Stations Pressure Air Temp Water Temp Dewpoint Dewpoint Depression Visibility Wind Speed Wind Dir Waves Ship Positions

American Integrity

Owner: American Steamship Company, Williamsville, NY. More information available from US FCC via Universal Licensing System and Coast Guard Vessel Documentation Center.

Last reported at 2016-Aug-31 22:33 UTC. Time now 2016-Aug-31 23:29 UTC.
Position N 46°52' W 091°50'.

; draft 8 m.

Type: Cargo ship. MMSI: 367120990.

Date/timePositionNaut miles runAvg speedWind from/ knotsBaromVisibWave heightAir tempDewpointWater temp
2016-Aug-31 22:33N 46°52' W 091°50'1222.3
2016-Aug-31 22:00N 47°00' W 091°36'2 3.9 150 / 71019.610.8 0.521.1
2016-Aug-31 21:33N 46°59' W 091°34'5211.3
2016-Aug-31 17:00N 47°18' W 090°24'3712.4 340 / 9 0.521.6
2016-Aug-31 14:00N 47°24' W 089°30'4912.3 340 / 161019.210.8 0.518.8
2016-Aug-31 10:00N 47°30' W 088°18'5410.8 340 / 131018.210.8 1.019.4
2016-Aug-31 05:00N 47°18' W 087°00'5614.0 310 / 121017.210.8 1.017.2
2016-Aug-31 01:00N 47°00' W 085°42'2713.7 320 / 201015.910.8 1.017.7
2016-Aug-30 23:00N 46°48' W 085°06'52 5.2 300 / 141015.910.8 1.017.7
2016-Aug-30 13:07N 46°16' W 084°07'6 7.9
2016-Aug-30 12:22N 46°10' W 084°05'1910.2
2016-Aug-30 10:28N 45°54' W 083°51'1112.1
2016-Aug-30 09:32N 45°44' W 083°42'1211.9
2016-Aug-30 08:32N 45°35' W 083°32'1212.0
2016-Aug-30 07:33N 45°27' W 083°20'2612.6
2016-Aug-30 05:31N 45°11' W 082°51'3710.5
2016-Aug-30 02:00N 44°42' W 082°18'   160 / 81021.310.8 23.8
2016-Aug-27 17:27N 46°02' W 083°55'16 8.5
2016-Aug-27 15:33N 46°13' W 084°10'105 7.8
2016-Aug-27 02:00N 47°12' W 086°18'20411.1 240 / 71019.610.8 15.5
2016-Aug-26 07:33N 47°03' W 091°18'1111.2
2016-Aug-26 06:33N 46°58' W 091°33'2311.4
2016-Aug-26 04:33N 46°48' W 092°02'4 3.9
2016-Aug-26 03:33N 46°45' W 092°06'1 1.3
2016-Aug-26 02:33N 46°45' W 092°08'0 0.0
2016-Aug-26 01:33N 46°45' W 092°08'0 0.0
2016-Aug-26 00:33N 46°45' W 092°08'0 0.0
2016-Aug-25 23:33N 46°45' W 092°08'0 0.0
2016-Aug-25 22:33N 46°45' W 092°08'0 0.0
2016-Aug-25 21:33N 46°45' W 092°08'0 0.0
2016-Aug-25 20:33N 46°45' W 092°08'0 0.0
2016-Aug-25 19:33N 46°45' W 092°08'0 0.0
2016-Aug-25 18:33N 46°45' W 092°08'0 0.0
2016-Aug-25 17:33N 46°45' W 092°08'0 0.0
2016-Aug-25 16:33N 46°45' W 092°08'0 0.0
2016-Aug-25 15:33N 46°45' W 092°08'0 0.0
2016-Aug-25 14:33N 46°45' W 092°08'0 0.0
2016-Aug-25 13:33N 46°45' W 092°08'0 0.0
2016-Aug-25 12:33N 46°45' W 092°08'0 0.0
2016-Aug-25 11:33N 46°45' W 092°08'0 0.0
2016-Aug-25 10:33N 46°45' W 092°08'0 0.0
2016-Aug-25 09:33N 46°45' W 092°08'0 0.0
2016-Aug-25 08:33N 46°45' W 092°08'0 0.0
2016-Aug-25 07:33N 46°45' W 092°08'0 0.0
2016-Aug-25 06:33N 46°45' W 092°08'0 0.0
2016-Aug-25 04:33N 46°45' W 092°08'0 0.0
2016-Aug-25 03:33N 46°45' W 092°08'0 0.0
2016-Aug-25 02:34N 46°45' W 092°08'0 0.0
2016-Aug-25 01:33N 46°45' W 092°08'0 0.0
2016-Aug-25 00:33N 46°45' W 092°08'0 0.0
2016-Aug-24 23:33N 46°45' W 092°08'0 0.0
2016-Aug-24 22:33N 46°45' W 092°08'0 0.0
2016-Aug-24 21:33N 46°45' W 092°08'0 0.0
2016-Aug-24 20:33N 46°45' W 092°08'0 0.0
2016-Aug-24 19:33N 46°45' W 092°08'0 0.0
2016-Aug-24 18:33N 46°45' W 092°08'0 0.0
2016-Aug-24 17:33N 46°45' W 092°08'0 0.0
2016-Aug-24 16:33N 46°45' W 092°08'0 0.0
2016-Aug-24 15:33N 46°45' W 092°08'0 0.0
2016-Aug-24 14:32N 46°45' W 092°08'0 0.0
2016-Aug-24 13:33N 46°45' W 092°08'0 0.0
2016-Aug-24 12:33N 46°45' W 092°08'0 0.0
2016-Aug-24 11:33N 46°45' W 092°08'0 0.0
2016-Aug-24 10:33N 46°45' W 092°08'0 0.0
2016-Aug-24 09:33N 46°45' W 092°08'0 0.3
2016-Aug-24 08:33N 46°45' W 092°08'2 1.6
2016-Aug-24 07:33N 46°45' W 092°06'0 0.2
2016-Aug-24 06:33N 46°46' W 092°06'0 0.0
2016-Aug-24 04:33N 46°46' W 092°06'0 0.0
2016-Aug-24 03:33N 46°46' W 092°06'0 0.0
2016-Aug-24 02:33N 46°46' W 092°06'0 0.0
2016-Aug-24 01:33N 46°46' W 092°06'0 0.0
2016-Aug-24 00:33N 46°46' W 092°06'0 0.0
2016-Aug-23 23:33N 46°46' W 092°06'0 0.0
2016-Aug-23 22:33N 46°46' W 092°06'0 0.0
2016-Aug-23 21:33N 46°46' W 092°06'0 0.0
2016-Aug-23 20:33N 46°46' W 092°06'4 4.0
2016-Aug-23 19:33N 46°48' W 092°01'1010.3
2016-Aug-23 18:33N 46°53' W 091°48'1111.0
2016-Aug-23 17:33N 46°59' W 091°34'30 8.6
2016-Aug-23 14:00N 47°12' W 090°54'   13.5

Dump ship's entire track history